createdAt,value
2019-04-20T00:01:29.376Z,84.90
2019-04-20T00:03:55.684Z,85.60
2019-04-20T00:06:25.005Z,85.90
2019-04-20T00:08:59.832Z,85.80
2019-04-20T00:11:31.018Z,86.00
2019-04-20T00:14:04.027Z,85.90
2019-04-20T00:16:25.649Z,85.50
2019-04-20T00:18:58.586Z,85.80
2019-04-20T00:21:47.256Z,85.60
2019-04-20T00:24:24.791Z,86.40
2019-04-20T00:29:35.581Z,85.90
2019-04-20T00:31:59.373Z,86.30
2019-04-20T00:34:26.646Z,86.20
2019-04-20T00:36:49.839Z,86.70
2019-04-20T00:39:20.207Z,87.00
2019-04-20T00:41:57.101Z,87.00
2019-04-20T00:44:27.851Z,87.20
2019-04-20T00:47:06.097Z,88.10
2019-04-20T00:49:34.888Z,88.20
2019-04-20T00:52:18.811Z,88.00
2019-04-20T00:54:22.289Z,87.90
2019-04-20T00:56:53.167Z,88.30
2019-04-20T00:59:35.478Z,88.30
2019-04-20T01:02:11.735Z,88.20
2019-04-20T01:04:40.723Z,88.40
2019-04-20T01:07:23.242Z,87.80
2019-04-20T01:09:56.307Z,87.70
2019-04-20T01:12:28.616Z,87.20
2019-04-20T01:15:01.064Z,88.30
2019-04-20T01:17:26.372Z,89.10
2019-04-20T01:19:55.302Z,89.30
2019-04-20T01:22:27.315Z,89.30
2019-04-20T01:25:00.016Z,88.20
2019-04-20T01:27:39.605Z,89.20
2019-04-20T01:30:07.102Z,89.70
2019-04-20T01:32:47.375Z,89.80
2019-04-20T01:35:10.109Z,89.90
2019-04-20T01:37:40.866Z,90.00
2019-04-20T01:40:03.979Z,89.80
2019-04-20T01:42:30.528Z,90.10
2019-04-20T01:45:00.280Z,89.60
2019-04-20T01:47:37.964Z,90.00
2019-04-20T01:50:03.766Z,90.40
2019-04-20T01:52:44.246Z,90.40
2019-04-20T01:55:27.801Z,90.30
2019-04-20T01:58:00.118Z,90.40
2019-04-20T02:00:26.597Z,90.80
2019-04-20T02:02:59.303Z,90.90
2019-04-20T02:05:29.691Z,91.00
2019-04-20T02:07:56.718Z,91.10
2019-04-20T02:10:31.932Z,91.50
2019-04-20T02:13:01.132Z,91.70
2019-04-20T02:15:32.545Z,91.40
2019-04-20T02:18:07.705Z,91.80
2019-04-20T02:20:48.582Z,91.50
2019-04-20T02:23:10.666Z,91.50
2019-04-20T02:25:29.571Z,91.10
2019-04-20T02:28:17.774Z,90.70
2019-04-20T02:31:06.451Z,90.70
2019-04-20T02:33:42.789Z,89.00
2019-04-20T02:36:20.591Z,90.20
2019-04-20T02:39:05.674Z,90.30
2019-04-20T02:41:10.141Z,90.60
2019-04-20T02:44:06.016Z,90.60
2019-04-20T02:46:08.856Z,90.80
2019-04-20T02:48:40.058Z,90.30
2019-04-20T02:51:13.545Z,90.50
2019-04-20T02:53:51.070Z,90.20
2019-04-20T02:56:21.801Z,90.20
2019-04-20T02:58:57.614Z,90.40
2019-04-20T03:01:53.216Z,90.30
2019-04-20T03:03:58.263Z,90.10
2019-04-20T03:06:36.576Z,90.50
2019-04-20T03:09:19.923Z,90.40
2019-04-20T03:11:52.748Z,90.30
2019-04-20T03:14:14.898Z,90.20
2019-04-20T03:16:45.543Z,90.60
2019-04-20T03:19:14.125Z,90.60
2019-04-20T03:21:54.204Z,90.80
2019-04-20T03:24:26.770Z,90.90
2019-04-20T03:26:55.655Z,90.80
2019-04-20T03:29:41.204Z,90.50
2019-04-20T03:32:40.384Z,90.80
2019-04-20T03:37:19.362Z,90.90
2019-04-20T03:39:40.510Z,91.20
2019-04-20T03:41:58.454Z,91.80
2019-04-20T03:44:30.680Z,92.00
2019-04-20T03:47:04.663Z,92.40
2019-04-20T03:49:57.164Z,92.50
2019-04-20T03:52:38.905Z,92.00
2019-04-20T03:55:16.492Z,91.90
2019-04-20T03:57:57.158Z,92.10
2019-04-20T04:00:45.948Z,91.60
2019-04-20T04:03:41.092Z,91.30
2019-04-20T04:06:05.476Z,90.80
2019-04-20T04:08:32.219Z,91.40
2019-04-20T04:11:12.323Z,91.30
2019-04-20T04:13:24.941Z,91.20
2019-04-20T04:15:59.261Z,91.50
2019-04-20T04:18:33.312Z,91.20
2019-04-20T04:21:03.033Z,91.20
2019-04-20T04:23:48.708Z,91.30
2019-04-20T04:26:16.079Z,91.00
2019-04-20T04:28:44.800Z,91.80
2019-04-20T04:31:16.300Z,91.60
2019-04-20T04:33:55.914Z,91.50
2019-04-20T04:36:15.530Z,91.60
2019-04-20T04:38:53.694Z,91.60
2019-04-20T04:41:23.935Z,91.40
2019-04-20T04:43:49.420Z,91.40
2019-04-20T04:46:03.910Z,91.10
2019-04-20T04:48:37.405Z,91.30
2019-04-20T04:51:13.147Z,91.20
2019-04-20T04:53:44.353Z,90.90
2019-04-20T04:56:09.475Z,91.30
2019-04-20T04:58:36.271Z,91.50
2019-04-20T05:01:11.808Z,91.00
2019-04-20T05:04:07.861Z,90.80
2019-04-20T05:06:25.281Z,90.50
2019-04-20T05:08:45.302Z,90.50
2019-04-20T05:11:11.043Z,90.60
2019-04-20T05:13:49.091Z,90.80
2019-04-20T05:16:27.989Z,91.00
2019-04-20T05:19:03.394Z,91.00
2019-04-20T05:21:30.221Z,90.80
2019-04-20T05:24:06.159Z,90.90
2019-04-20T05:26:50.556Z,90.60
2019-04-20T05:29:06.739Z,91.20
2019-04-20T05:31:34.038Z,90.90
2019-04-20T05:34:20.595Z,90.70
2019-04-20T05:36:46.136Z,89.40
2019-04-20T05:41:46.762Z,89.30
2019-04-20T05:44:16.941Z,90.00
2019-04-20T05:46:59.509Z,89.80
2019-04-20T05:49:27.025Z,90.40
2019-04-20T05:52:20.264Z,90.70
2019-04-20T05:54:28.216Z,91.00
2019-04-20T05:56:58.877Z,91.00
2019-04-20T05:59:24.188Z,91.20
2019-04-20T06:01:57.702Z,90.60
2019-04-20T06:04:44.548Z,90.80
2019-04-20T06:07:02.436Z,90.80
2019-04-20T06:09:28.454Z,90.40
2019-04-20T06:12:16.516Z,90.40
2019-04-20T06:14:28.642Z,90.60
2019-04-20T06:17:21.042Z,88.80
2019-04-20T06:19:46.977Z,84.50
2019-04-20T06:22:29.676Z,82.00
2019-04-20T06:25:00.984Z,83.10
2019-04-20T06:27:21.179Z,83.70
2019-04-20T06:29:51.413Z,84.00
2019-04-20T06:32:28.843Z,83.50
2019-04-20T06:35:00.535Z,84.40
2019-04-20T06:37:29.304Z,86.10
2019-04-20T06:40:07.811Z,86.40
2019-04-20T06:42:23.610Z,87.70
2019-04-20T06:45:02.189Z,89.80
2019-04-20T06:47:36.014Z,88.70
2019-04-20T06:50:04.609Z,89.40
2019-04-20T06:52:43.831Z,89.50
2019-04-20T06:55:14.333Z,90.00
2019-04-20T06:57:48.204Z,90.20
2019-04-20T07:00:18.108Z,90.10
2019-04-20T07:02:53.050Z,88.40
2019-04-20T07:05:19.021Z,86.70
2019-04-20T07:07:54.825Z,82.60
2019-04-20T07:10:40.692Z,87.10
2019-04-20T07:12:45.038Z,87.20
2019-04-20T07:15:18.881Z,86.90
2019-04-20T07:17:57.739Z,87.20
2019-04-20T07:20:46.129Z,86.70
2019-04-20T07:23:18.954Z,87.90
2019-04-20T07:25:44.725Z,88.00
2019-04-20T07:28:12.843Z,89.10
2019-04-20T07:30:43.612Z,88.30
2019-04-20T07:33:18.702Z,87.80
2019-04-20T07:35:40.102Z,89.30
2019-04-20T07:38:28.492Z,88.70
2019-04-20T07:40:44.469Z,89.00
2019-04-20T07:43:07.903Z,88.80
2019-04-20T07:45:37.594Z,88.60
2019-04-20T07:48:18.756Z,88.90
2019-04-20T07:50:38.491Z,88.30
2019-04-20T07:53:14.679Z,88.30
2019-04-20T07:55:51.165Z,87.20
2019-04-20T07:58:08.321Z,86.30
2019-04-20T08:05:55.866Z,83.90
2019-04-20T08:08:35.032Z,84.30
2019-04-20T08:11:09.748Z,84.60
2019-04-20T08:13:45.603Z,85.90
2019-04-20T08:16:21.659Z,85.80
2019-04-20T08:18:44.010Z,86.20
2019-04-20T08:21:09.623Z,87.10
2019-04-20T08:23:45.894Z,84.70
2019-04-20T08:26:06.608Z,82.20
2019-04-20T08:28:44.216Z,81.20
2019-04-20T08:31:30.092Z,76.50
2019-04-20T08:34:21.323Z,74.90
2019-04-20T08:36:49.217Z,76.40
2019-04-20T08:39:34.437Z,77.20
2019-04-20T08:41:50.104Z,76.30
2019-04-20T08:44:42.876Z,75.90
2019-04-20T08:47:00.238Z,77.30
2019-04-20T08:49:27.951Z,76.90
2019-04-20T08:51:55.904Z,76.40
2019-04-20T08:54:18.088Z,76.80
2019-04-20T08:56:38.993Z,74.50
2019-04-20T08:59:02.075Z,75.30
2019-04-20T09:01:34.113Z,71.90
2019-04-20T09:04:11.091Z,73.30
2019-04-20T09:06:45.681Z,72.30
2019-04-20T09:09:31.839Z,73.00
2019-04-20T09:11:55.632Z,71.00
2019-04-20T09:14:21.763Z,73.10
2019-04-20T09:16:59.810Z,71.90
2019-04-20T09:19:36.721Z,70.20
2019-04-20T09:22:24.401Z,70.00
2019-04-20T09:25:13.390Z,67.60
2019-04-20T09:27:26.876Z,68.40
2019-04-20T09:30:04.595Z,65.90
2019-04-20T09:32:42.691Z,66.10
2019-04-20T09:35:13.684Z,69.70
2019-04-20T09:37:44.631Z,67.60
2019-04-20T09:40:21.230Z,64.50
2019-04-20T09:42:45.353Z,63.80
2019-04-20T09:45:23.175Z,64.00
2019-04-20T09:47:50.221Z,62.00
2019-04-20T09:50:32.519Z,62.40
2019-04-20T09:53:04.077Z,62.20
2019-04-20T09:55:32.832Z,62.80
2019-04-20T09:58:01.508Z,63.20
2019-04-20T10:00:37.375Z,64.70
2019-04-20T10:02:50.757Z,61.60
2019-04-20T10:05:19.800Z,59.70
2019-04-20T10:07:55.986Z,65.90
2019-04-20T10:10:28.788Z,64.90
2019-04-20T10:12:50.105Z,65.10
2019-04-20T10:15:21.356Z,64.50
2019-04-20T10:17:49.900Z,62.70
2019-04-20T10:20:26.994Z,61.70
2019-04-20T10:22:50.785Z,64.60
2019-04-20T10:25:20.906Z,63.00
2019-04-20T10:28:01.376Z,64.10
2019-04-20T10:30:32.463Z,60.60
2019-04-20T10:33:01.639Z,62.00
2019-04-20T10:35:31.666Z,60.90
2019-04-20T10:38:05.462Z,61.10
2019-04-20T10:40:50.299Z,62.30
2019-04-20T10:43:08.076Z,63.90
2019-04-20T10:45:37.082Z,60.00
2019-04-20T10:48:05.916Z,60.70
2019-04-20T10:50:34.812Z,61.40
2019-04-20T10:53:05.758Z,64.80
2019-04-20T10:55:35.502Z,63.90
2019-04-20T10:58:04.828Z,65.30
2019-04-20T11:00:42.032Z,64.40
2019-04-20T11:03:13.529Z,64.00
2019-04-20T11:05:44.628Z,66.40
2019-04-20T11:08:14.839Z,64.60
2019-04-20T11:10:55.737Z,64.40
2019-04-20T11:13:15.179Z,63.90
2019-04-20T11:15:44.379Z,64.20
2019-04-20T11:18:13.443Z,62.70
2019-04-20T11:20:43.536Z,59.30
2019-04-20T11:23:13.902Z,60.90
2019-04-20T11:25:44.188Z,56.10
2019-04-20T11:28:14.289Z,54.20
2019-04-20T11:30:45.989Z,54.30
2019-04-20T11:33:16.127Z,56.00
2019-04-20T11:35:46.488Z,53.70
2019-04-20T11:38:17.270Z,54.70
2019-04-20T11:40:48.152Z,53.90
2019-04-20T11:43:17.821Z,52.00
2019-04-20T11:45:46.894Z,53.40
2019-04-20T11:48:15.920Z,50.70
2019-04-20T11:50:45.405Z,47.80
2019-04-20T11:53:15.325Z,49.30
2019-04-20T11:55:44.632Z,46.30
2019-04-20T11:58:14.214Z,45.60
2019-04-20T12:00:58.649Z,46.30
2019-04-20T12:03:28.153Z,49.00
2019-04-20T12:05:55.750Z,47.60
2019-04-20T12:08:25.063Z,49.80
2019-04-20T12:10:58.575Z,48.00
2019-04-20T12:13:26.759Z,49.90
2019-04-20T12:15:55.997Z,47.40
2019-04-20T12:18:25.371Z,48.40
2019-04-20T12:20:54.804Z,50.30
2019-04-20T12:23:24.494Z,50.40
2019-04-20T12:25:54.348Z,50.80
2019-04-20T12:28:23.487Z,49.50
2019-04-20T12:30:56.643Z,50.40
2019-04-20T12:33:24.245Z,50.70
2019-04-20T12:35:54.222Z,50.10
2019-04-20T12:38:23.298Z,48.80
2019-04-20T12:40:52.567Z,49.40
2019-04-20T12:43:21.591Z,49.10
2019-04-20T12:45:51.599Z,49.30
2019-04-20T12:48:21.779Z,50.20
2019-04-20T12:50:50.787Z,48.50
2019-04-20T12:53:20.455Z,52.50
2019-04-20T12:55:50.767Z,50.40
2019-04-20T12:58:20.867Z,48.20
2019-04-20T13:00:52.237Z,50.50
2019-04-20T13:03:21.589Z,49.80
2019-04-20T13:05:51.892Z,51.90
2019-04-20T13:08:29.567Z,52.70
2019-04-20T13:10:58.249Z,50.50
2019-04-20T13:13:40.919Z,52.80
2019-04-20T13:16:14.411Z,53.00
2019-04-20T13:18:47.935Z,52.70
2019-04-20T13:21:16.935Z,51.80
2019-04-20T13:23:47.023Z,52.20
2019-04-20T13:26:17.474Z,52.80
2019-04-20T13:28:46.783Z,53.80
2019-04-20T13:31:15.836Z,52.70
2019-04-20T13:33:45.320Z,54.20
2019-04-20T13:36:14.472Z,54.00
2019-04-20T13:38:44.061Z,54.40
2019-04-20T13:41:13.812Z,54.10
2019-04-20T13:43:43.917Z,53.30
2019-04-20T13:46:13.293Z,53.10
2019-04-20T13:48:42.745Z,53.80
2019-04-20T13:51:12.721Z,54.00
2019-04-20T13:53:41.670Z,54.90
2019-04-20T13:56:11.852Z,55.60
2019-04-20T13:58:54.878Z,55.70
2019-04-20T14:01:44.773Z,56.10
2019-04-20T14:04:16.469Z,57.10
2019-04-20T14:06:46.028Z,55.60
2019-04-20T14:09:15.140Z,56.40
2019-04-20T14:11:45.294Z,57.20
2019-04-20T14:14:15.493Z,56.60
2019-04-20T14:16:45.365Z,57.50
2019-04-20T14:19:14.506Z,57.30
2019-04-20T14:21:44.014Z,55.50
2019-04-20T14:24:13.207Z,56.30
2019-04-20T14:26:43.750Z,55.50
2019-04-20T14:29:12.809Z,55.00
2019-04-20T14:31:41.901Z,54.30
2019-04-20T14:34:12.923Z,54.50
2019-04-20T14:36:41.970Z,54.50
2019-04-20T14:39:12.080Z,52.70
2019-04-20T14:41:42.259Z,53.20
2019-04-20T14:44:12.070Z,52.90
2019-04-20T14:46:41.986Z,53.50
2019-04-20T14:49:12.466Z,53.40
2019-04-20T14:51:41.693Z,55.30
2019-04-20T14:54:11.686Z,55.10
2019-04-20T14:56:41.308Z,54.30
2019-04-20T14:59:11.988Z,50.60
2019-04-20T15:01:42.818Z,52.90
2019-04-20T15:04:16.841Z,52.30
2019-04-20T15:06:42.576Z,51.90
2019-04-20T15:09:12.838Z,53.10
2019-04-20T15:11:44.252Z,52.60
2019-04-20T15:14:12.467Z,51.60
2019-04-20T15:16:42.674Z,51.10
2019-04-20T15:19:13.699Z,53.20
2019-04-20T15:21:45.394Z,52.70
2019-04-20T15:24:15.468Z,53.90
2019-04-20T15:26:44.587Z,54.00
2019-04-20T15:29:14.597Z,54.20
2019-04-20T15:31:44.003Z,54.50
2019-04-20T15:34:12.996Z,54.10
2019-04-20T15:36:42.281Z,55.10
2019-04-20T15:39:11.462Z,55.80
2019-04-20T15:41:41.044Z,57.10
2019-04-20T15:44:11.233Z,57.60
2019-04-20T15:46:41.575Z,58.30
2019-04-20T15:49:10.624Z,57.80
2019-04-20T15:51:39.842Z,57.30
2019-04-20T15:54:09.466Z,57.70
2019-04-20T15:56:43.422Z,56.90
2019-04-20T15:59:10.430Z,57.60
2019-04-20T16:01:47.151Z,58.10
2019-04-20T16:04:37.567Z,58.80
2019-04-20T16:07:05.491Z,59.20
2019-04-20T16:09:35.804Z,59.30
2019-04-20T16:12:04.929Z,60.30
2019-04-20T16:14:33.863Z,61.60
2019-04-20T16:17:05.458Z,62.30
2019-04-20T16:19:43.591Z,62.70
2019-04-20T16:22:04.022Z,62.60
2019-04-20T16:24:35.776Z,63.60
2019-04-20T16:27:07.625Z,64.10
2019-04-20T16:29:37.840Z,63.70
2019-04-20T16:32:06.858Z,64.20
2019-04-20T16:34:37.162Z,63.50
2019-04-20T16:37:06.544Z,63.40
2019-04-20T16:39:36.576Z,63.70
2019-04-20T16:42:07.007Z,64.30
2019-04-20T16:44:35.923Z,63.90
2019-04-20T16:47:06.014Z,63.80
2019-04-20T16:49:35.219Z,64.00
2019-04-20T16:52:05.404Z,63.90
2019-04-20T16:54:35.522Z,63.20
2019-04-20T16:57:06.454Z,62.20
2019-04-20T16:59:42.344Z,63.30
2019-04-20T17:02:06.643Z,63.00
2019-04-20T17:04:35.676Z,62.80
2019-04-20T17:07:18.536Z,63.60
2019-04-20T17:09:49.686Z,64.40
2019-04-20T17:12:19.625Z,65.40
2019-04-20T17:14:49.483Z,65.50
2019-04-20T17:17:19.699Z,65.90
2019-04-20T17:19:49.318Z,65.80
2019-04-20T17:22:19.233Z,66.10
2019-04-20T17:24:49.462Z,66.20
2019-04-20T17:27:37.208Z,67.50
2019-04-20T17:30:26.660Z,68.30
2019-04-20T17:33:06.182Z,67.20
2019-04-20T17:35:50.644Z,67.00
2019-04-20T17:38:06.918Z,66.90
2019-04-20T17:40:55.988Z,67.90
2019-04-20T17:43:18.003Z,68.10
2019-04-20T17:45:48.303Z,68.40
2019-04-20T17:48:25.582Z,67.60
2019-04-20T17:51:02.993Z,69.20
2019-04-20T17:53:29.411Z,69.30
2019-04-20T17:58:47.931Z,68.40
2019-04-20T18:01:51.911Z,68.10
2019-04-20T18:04:53.787Z,68.00
2019-04-20T18:09:58.432Z,67.80
2019-04-20T18:12:23.214Z,67.40
2019-04-20T18:15:00.834Z,67.70
2019-04-20T18:17:33.371Z,68.40
2019-04-20T18:20:32.706Z,68.40
2019-04-20T18:23:02.548Z,68.40
2019-04-20T18:25:59.111Z,68.70
2019-04-20T18:28:14.592Z,67.80
2019-04-20T18:30:57.259Z,68.40
2019-04-20T18:33:29.018Z,68.90
2019-04-20T18:35:54.683Z,69.10
2019-04-20T18:38:26.197Z,70.00
2019-04-20T18:41:02.629Z,70.70
2019-04-20T18:43:27.877Z,70.30
2019-04-20T18:46:12.425Z,71.50
2019-04-20T18:48:48.541Z,71.20
2019-04-20T18:50:59.717Z,71.20
2019-04-20T18:53:37.442Z,71.80
2019-04-20T18:56:02.724Z,71.60
2019-04-20T18:58:33.295Z,72.70
2019-04-20T19:01:03.150Z,73.30
2019-04-20T19:03:35.750Z,73.20
2019-04-20T19:06:05.627Z,73.00
2019-04-20T19:08:39.613Z,73.10
2019-04-20T19:11:09.849Z,74.50
2019-04-20T19:13:44.594Z,73.70
2019-04-20T19:16:25.484Z,73.30
2019-04-20T19:19:06.323Z,74.00
2019-04-20T19:21:28.752Z,75.40
2019-04-20T19:24:05.608Z,76.50
2019-04-20T19:26:29.957Z,76.10
2019-04-20T19:29:12.005Z,75.50
2019-04-20T19:31:45.802Z,76.60
2019-04-20T19:34:19.588Z,78.10
2019-04-20T19:36:38.938Z,78.00
2019-04-20T19:39:19.438Z,78.80
2019-04-20T19:41:42.886Z,79.10
2019-04-20T19:44:15.208Z,77.50
2019-04-20T19:46:53.616Z,79.70
2019-04-20T19:49:19.211Z,81.40
2019-04-20T19:52:02.794Z,81.60
2019-04-20T19:54:31.241Z,81.90
2019-04-20T19:56:48.638Z,81.70
2019-04-20T19:59:19.846Z,82.00
2019-04-20T20:01:38.006Z,80.50
2019-04-20T20:04:09.840Z,82.40
2019-04-20T20:06:45.365Z,83.40
2019-04-20T20:09:12.238Z,84.40
2019-04-20T20:11:42.985Z,84.80
2019-04-20T20:14:12.775Z,84.40
2019-04-20T20:16:58.943Z,85.10
2019-04-20T20:19:27.811Z,85.50
2019-04-20T20:21:58.994Z,85.70
2019-04-20T20:24:14.387Z,85.70
2019-04-20T20:26:50.035Z,86.80
2019-04-20T20:29:23.198Z,86.00
2019-04-20T20:32:03.649Z,86.30
2019-04-20T20:34:24.512Z,84.70
2019-04-20T20:36:57.174Z,85.40
2019-04-20T20:39:24.119Z,85.70
2019-04-20T20:42:00.492Z,87.60
2019-04-20T20:44:28.709Z,87.80
2019-04-20T20:47:02.598Z,87.50
2019-04-20T20:49:38.603Z,86.90
2019-04-20T20:52:09.713Z,88.80
2019-04-20T20:54:36.071Z,89.30
2019-04-20T20:56:59.825Z,89.40
2019-04-20T20:59:38.308Z,90.30
2019-04-20T21:02:03.856Z,90.30
2019-04-20T21:04:23.784Z,90.40
2019-04-20T21:06:52.874Z,88.00
2019-04-20T21:09:25.154Z,90.10
2019-04-20T21:12:00.659Z,89.80
2019-04-20T21:14:27.923Z,90.30
2019-04-20T21:17:04.120Z,90.30
2019-04-20T21:19:46.561Z,90.50
2019-04-20T21:22:04.450Z,90.70
2019-04-20T21:24:27.309Z,90.50
2019-04-20T21:27:03.082Z,90.50
2019-04-20T21:29:35.904Z,90.90
2019-04-20T21:32:05.188Z,91.10
2019-04-20T21:34:31.158Z,90.30
2019-04-20T21:37:06.207Z,91.40
2019-04-20T21:39:40.977Z,91.60
2019-04-20T21:42:10.396Z,91.80
2019-04-20T21:44:37.454Z,92.10
2019-04-20T21:47:07.336Z,91.90
2019-04-20T21:49:49.675Z,91.80
2019-04-20T21:52:18.314Z,91.60
2019-04-20T21:54:38.250Z,92.10
2019-04-20T21:57:11.133Z,91.90
2019-04-20T21:59:44.410Z,91.90
2019-04-20T22:02:17.222Z,92.30
2019-04-20T22:04:40.220Z,92.40
2019-04-20T22:07:10.333Z,92.60
2019-04-20T22:09:45.791Z,92.40
2019-04-20T22:12:11.953Z,92.20
2019-04-20T22:14:41.826Z,92.00
2019-04-20T22:17:16.295Z,91.80
2019-04-20T22:19:47.818Z,92.00
2019-04-20T22:22:22.837Z,91.80
2019-04-20T22:24:57.762Z,92.00
2019-04-20T22:27:20.356Z,92.30
2019-04-20T22:29:44.382Z,92.30
2019-04-20T22:32:16.871Z,92.00
2019-04-20T22:34:46.447Z,91.90
2019-04-20T22:37:21.239Z,92.00
2019-04-20T22:39:52.535Z,92.10
2019-04-20T22:42:18.807Z,92.00
2019-04-20T22:44:57.547Z,92.20
2019-04-20T22:47:23.335Z,92.60
2019-04-20T22:50:11.925Z,93.00
2019-04-20T22:52:34.843Z,92.40
2019-04-20T22:55:12.064Z,92.90
2019-04-20T22:57:38.784Z,93.10
2019-04-20T23:00:02.676Z,93.30
2019-04-20T23:02:24.899Z,93.60
2019-04-20T23:04:54.849Z,93.50
2019-04-20T23:07:23.950Z,93.70
2019-04-20T23:09:56.488Z,93.20
2019-04-20T23:12:26.918Z,93.30
2019-04-20T23:14:56.495Z,93.10
2019-04-20T23:17:33.565Z,93.00
2019-04-20T23:20:00.932Z,93.30
2019-04-20T23:22:33.861Z,93.80
2019-04-20T23:24:57.613Z,93.00
2019-04-20T23:27:31.306Z,93.40
2019-04-20T23:29:58.377Z,93.40
2019-04-20T23:32:30.070Z,93.00
2019-04-20T23:35:04.914Z,92.80
2019-04-20T23:37:32.128Z,92.00
2019-04-20T23:40:00.453Z,93.70
2019-04-20T23:42:33.660Z,93.30
2019-04-20T23:45:03.742Z,93.10
2019-04-20T23:47:39.750Z,93.30
2019-04-20T23:50:30.562Z,93.10
2019-04-20T23:52:59.741Z,93.20
2019-04-20T23:55:13.969Z,93.50
2019-04-20T23:57:42.048Z,93.60
